sensor_id;sensor_type;location;lat;lon;timestamp;P1;durP1;ratioP1;P2;durP2;ratioP2
54883;SDS011;40776;52.880;6.016;2022-11-11T00:00:04;18.48;;;8.95;;
54883;SDS011;40776;52.880;6.016;2022-11-11T00:02:31;13.98;;;7.82;;
54883;SDS011;40776;52.880;6.016;2022-11-11T00:04:57;13.90;;;7.93;;
54883;SDS011;40776;52.880;6.016;2022-11-11T00:07:23;21.80;;;9.93;;
54883;SDS011;40776;52.880;6.016;2022-11-11T00:09:49;19.95;;;8.60;;
54883;SDS011;40776;52.880;6.016;2022-11-11T00:12:15;16.20;;;7.38;;
54883;SDS011;40776;52.880;6.016;2022-11-11T00:14:41;15.48;;;8.35;;
54883;SDS011;40776;52.880;6.016;2022-11-11T00:17:08;26.00;;;8.63;;
54883;SDS011;40776;52.880;6.016;2022-11-11T00:19:55;18.42;;;8.13;;
54883;SDS011;40776;52.880;6.016;2022-11-11T00:22:46;18.77;;;7.97;;
54883;SDS011;40776;52.880;6.016;2022-11-11T00:25:45;23.48;;;8.35;;
54883;SDS011;40776;52.880;6.016;2022-11-11T00:28:11;19.23;;;8.68;;
54883;SDS011;40776;52.880;6.016;2022-11-11T00:30:37;19.77;;;9.52;;
54883;SDS011;40776;52.880;6.016;2022-11-11T00:35:40;17.48;;;7.93;;
54883;SDS011;40776;52.880;6.016;2022-11-11T00:38:19;18.80;;;8.73;;
54883;SDS011;40776;52.880;6.016;2022-11-11T00:41:04;15.55;;;8.80;;
54883;SDS011;40776;52.880;6.016;2022-11-11T00:43:30;23.20;;;9.38;;
54883;SDS011;40776;52.880;6.016;2022-11-11T00:45:56;22.73;;;9.85;;
54883;SDS011;40776;52.880;6.016;2022-11-11T00:48:42;18.42;;;9.57;;
54883;SDS011;40776;52.880;6.016;2022-11-11T00:51:26;15.82;;;8.70;;
54883;SDS011;40776;52.880;6.016;2022-11-11T00:53:53;20.35;;;9.38;;
54883;SDS011;40776;52.880;6.016;2022-11-11T00:56:19;21.00;;;10.40;;
54883;SDS011;40776;52.880;6.016;2022-11-11T00:58:45;18.98;;;9.40;;
54883;SDS011;40776;52.880;6.016;2022-11-11T01:01:11;18.13;;;9.00;;
54883;SDS011;40776;52.880;6.016;2022-11-11T01:03:37;18.55;;;8.25;;
54883;SDS011;40776;52.880;6.016;2022-11-11T01:06:03;19.23;;;9.65;;
54883;SDS011;40776;52.880;6.016;2022-11-11T01:08:30;23.00;;;10.18;;
54883;SDS011;40776;52.880;6.016;2022-11-11T01:10:57;17.77;;;10.48;;
54883;SDS011;40776;52.880;6.016;2022-11-11T01:13:24;18.52;;;9.35;;
54883;SDS011;40776;52.880;6.016;2022-11-11T01:15:51;19.67;;;9.60;;
54883;SDS011;40776;52.880;6.016;2022-11-11T01:18:22;27.92;;;11.75;;
54883;SDS011;40776;52.880;6.016;2022-11-11T01:21:02;19.02;;;9.80;;
54883;SDS011;40776;52.880;6.016;2022-11-11T01:23:29;18.75;;;10.13;;
54883;SDS011;40776;52.880;6.016;2022-11-11T01:26:00;15.88;;;10.18;;
54883;SDS011;40776;52.880;6.016;2022-11-11T01:30:51;21.00;;;10.10;;
54883;SDS011;40776;52.880;6.016;2022-11-11T01:33:17;20.92;;;11.23;;
54883;SDS011;40776;52.880;6.016;2022-11-11T01:35:45;19.58;;;10.00;;
54883;SDS011;40776;52.880;6.016;2022-11-11T01:38:11;21.80;;;10.25;;
54883;SDS011;40776;52.880;6.016;2022-11-11T01:40:41;19.92;;;10.90;;
54883;SDS011;40776;52.880;6.016;2022-11-11T01:48:18;22.92;;;11.43;;
54883;SDS011;40776;52.880;6.016;2022-11-11T01:51:05;18.83;;;11.45;;
54883;SDS011;40776;52.880;6.016;2022-11-11T01:53:35;20.90;;;11.10;;
54883;SDS011;40776;52.880;6.016;2022-11-11T01:56:01;22.23;;;11.70;;
54883;SDS011;40776;52.880;6.016;2022-11-11T01:58:27;25.90;;;13.02;;
54883;SDS011;40776;52.880;6.016;2022-11-11T02:00:54;25.75;;;12.82;;
54883;SDS011;40776;52.880;6.016;2022-11-11T02:03:21;24.98;;;13.32;;
54883;SDS011;40776;52.880;6.016;2022-11-11T02:05:48;24.05;;;13.98;;
54883;SDS011;40776;52.880;6.016;2022-11-11T02:08:30;22.17;;;12.32;;
54883;SDS011;40776;52.880;6.016;2022-11-11T02:11:15;24.15;;;12.32;;
54883;SDS011;40776;52.880;6.016;2022-11-11T02:14:01;26.13;;;14.05;;
54883;SDS011;40776;52.880;6.016;2022-11-11T02:16:46;28.10;;;16.15;;
54883;SDS011;40776;52.880;6.016;2022-11-11T02:19:12;31.90;;;16.90;;
54883;SDS011;40776;52.880;6.016;2022-11-11T02:21:41;34.65;;;18.15;;
54883;SDS011;40776;52.880;6.016;2022-11-11T02:24:09;27.20;;;17.05;;
54883;SDS011;40776;52.880;6.016;2022-11-11T02:26:37;33.92;;;16.77;;
54883;SDS011;40776;52.880;6.016;2022-11-11T02:29:06;27.85;;;16.58;;
54883;SDS011;40776;52.880;6.016;2022-11-11T02:31:33;29.20;;;17.23;;
54883;SDS011;40776;52.880;6.016;2022-11-11T02:33:59;33.00;;;18.85;;
54883;SDS011;40776;52.880;6.016;2022-11-11T02:36:25;30.60;;;16.42;;
54883;SDS011;40776;52.880;6.016;2022-11-11T02:38:51;29.02;;;18.48;;
54883;SDS011;40776;52.880;6.016;2022-11-11T02:41:17;30.45;;;17.38;;
54883;SDS011;40776;52.880;6.016;2022-11-11T02:44:02;33.97;;;18.25;;
54883;SDS011;40776;52.880;6.016;2022-11-11T02:46:28;25.80;;;17.20;;
54883;SDS011;40776;52.880;6.016;2022-11-11T02:48:54;34.05;;;18.67;;
54883;SDS011;40776;52.880;6.016;2022-11-11T02:51:20;29.88;;;16.67;;
54883;SDS011;40776;52.880;6.016;2022-11-11T02:53:46;30.88;;;17.92;;
54883;SDS011;40776;52.880;6.016;2022-11-11T02:56:12;28.77;;;18.95;;
54883;SDS011;40776;52.880;6.016;2022-11-11T02:58:58;27.20;;;18.20;;
54883;SDS011;40776;52.880;6.016;2022-11-11T03:01:24;30.73;;;18.05;;
54883;SDS011;40776;52.880;6.016;2022-11-11T03:03:50;28.17;;;18.73;;
54883;SDS011;40776;52.880;6.016;2022-11-11T03:06:16;32.05;;;19.80;;
54883;SDS011;40776;52.880;6.016;2022-11-11T03:08:42;33.92;;;19.40;;
54883;SDS011;40776;52.880;6.016;2022-11-11T03:11:08;30.40;;;18.92;;
54883;SDS011;40776;52.880;6.016;2022-11-11T03:13:34;31.92;;;18.67;;
54883;SDS011;40776;52.880;6.016;2022-11-11T03:16:00;33.40;;;18.83;;
54883;SDS011;40776;52.880;6.016;2022-11-11T03:18:26;39.70;;;20.67;;
54883;SDS011;40776;52.880;6.016;2022-11-11T03:20:52;32.22;;;20.17;;
54883;SDS011;40776;52.880;6.016;2022-11-11T03:23:30;34.60;;;21.02;;
54883;SDS011;40776;52.880;6.016;2022-11-11T03:25:56;31.02;;;17.92;;
54883;SDS011;40776;52.880;6.016;2022-11-11T03:28:22;39.13;;;21.83;;
54883;SDS011;40776;52.880;6.016;2022-11-11T03:30:52;37.38;;;21.40;;
54883;SDS011;40776;52.880;6.016;2022-11-11T03:33:18;35.75;;;20.13;;
54883;SDS011;40776;52.880;6.016;2022-11-11T03:35:47;34.13;;;21.50;;
54883;SDS011;40776;52.880;6.016;2022-11-11T03:38:13;41.45;;;23.38;;
54883;SDS011;40776;52.880;6.016;2022-11-11T03:40:39;30.13;;;18.85;;
54883;SDS011;40776;52.880;6.016;2022-11-11T03:43:05;36.30;;;20.83;;
54883;SDS011;40776;52.880;6.016;2022-11-11T03:45:32;41.35;;;22.95;;
54883;SDS011;40776;52.880;6.016;2022-11-11T03:47:58;28.17;;;18.90;;
54883;SDS011;40776;52.880;6.016;2022-11-11T03:50:27;35.67;;;19.95;;
54883;SDS011;40776;52.880;6.016;2022-11-11T03:52:53;32.53;;;19.65;;
54883;SDS011;40776;52.880;6.016;2022-11-11T03:55:19;35.88;;;21.25;;
54883;SDS011;40776;52.880;6.016;2022-11-11T03:57:45;35.38;;;22.13;;
54883;SDS011;40776;52.880;6.016;2022-11-11T04:00:12;32.00;;;20.63;;
54883;SDS011;40776;52.880;6.016;2022-11-11T04:02:39;37.55;;;21.17;;
54883;SDS011;40776;52.880;6.016;2022-11-11T04:05:24;37.83;;;22.52;;
54883;SDS011;40776;52.880;6.016;2022-11-11T04:08:12;35.58;;;22.00;;
54883;SDS011;40776;52.880;6.016;2022-11-11T04:10:58;37.97;;;22.23;;
54883;SDS011;40776;52.880;6.016;2022-11-11T04:13:26;40.70;;;21.25;;
54883;SDS011;40776;52.880;6.016;2022-11-11T04:16:11;40.30;;;22.60;;
54883;SDS011;40776;52.880;6.016;2022-11-11T04:18:37;36.08;;;21.48;;
54883;SDS011;40776;52.880;6.016;2022-11-11T04:21:26;37.05;;;22.77;;
54883;SDS011;40776;52.880;6.016;2022-11-11T04:24:14;38.85;;;23.80;;
54883;SDS011;40776;52.880;6.016;2022-11-11T04:26:59;30.88;;;18.88;;
54883;SDS011;40776;52.880;6.016;2022-11-11T04:29:26;39.47;;;23.50;;
54883;SDS011;40776;52.880;6.016;2022-11-11T04:31:52;40.03;;;22.98;;
54883;SDS011;40776;52.880;6.016;2022-11-11T04:34:37;42.15;;;24.10;;
54883;SDS011;40776;52.880;6.016;2022-11-11T04:37:03;28.98;;;18.05;;
54883;SDS011;40776;52.880;6.016;2022-11-11T04:39:29;36.50;;;20.58;;
54883;SDS011;40776;52.880;6.016;2022-11-11T04:42:14;38.80;;;21.48;;
54883;SDS011;40776;52.880;6.016;2022-11-11T04:44:39;42.13;;;25.75;;
54883;SDS011;40776;52.880;6.016;2022-11-11T04:47:24;37.40;;;23.05;;
54883;SDS011;40776;52.880;6.016;2022-11-11T04:49:50;41.08;;;20.75;;
54883;SDS011;40776;52.880;6.016;2022-11-11T04:52:16;44.80;;;23.30;;
54883;SDS011;40776;52.880;6.016;2022-11-11T04:54:51;38.10;;;21.13;;
54883;SDS011;40776;52.880;6.016;2022-11-11T04:57:46;38.22;;;22.15;;
54883;SDS011;40776;52.880;6.016;2022-11-11T05:00:13;39.72;;;24.70;;
54883;SDS011;40776;52.880;6.016;2022-11-11T05:02:40;40.75;;;22.50;;
54883;SDS011;40776;52.880;6.016;2022-11-11T05:05:25;40.10;;;22.23;;
54883;SDS011;40776;52.880;6.016;2022-11-11T05:07:51;43.83;;;23.83;;
54883;SDS011;40776;52.880;6.016;2022-11-11T05:10:36;43.92;;;23.88;;
54883;SDS011;40776;52.880;6.016;2022-11-11T05:13:03;40.00;;;21.35;;
54883;SDS011;40776;52.880;6.016;2022-11-11T05:15:48;36.25;;;21.88;;
54883;SDS011;40776;52.880;6.016;2022-11-11T05:18:33;39.53;;;23.10;;
54883;SDS011;40776;52.880;6.016;2022-11-11T05:21:20;43.13;;;25.50;;
54883;SDS011;40776;52.880;6.016;2022-11-11T05:23:46;43.60;;;24.70;;
54883;SDS011;40776;52.880;6.016;2022-11-11T05:26:31;43.95;;;22.63;;
54883;SDS011;40776;52.880;6.016;2022-11-11T05:28:57;39.08;;;22.48;;
54883;SDS011;40776;52.880;6.016;2022-11-11T05:31:23;42.25;;;23.52;;
54883;SDS011;40776;52.880;6.016;2022-11-11T05:33:49;45.83;;;22.48;;
54883;SDS011;40776;52.880;6.016;2022-11-11T05:36:15;44.42;;;23.48;;
54883;SDS011;40776;52.880;6.016;2022-11-11T05:38:42;43.97;;;23.98;;
54883;SDS011;40776;52.880;6.016;2022-11-11T05:41:08;41.78;;;23.83;;
54883;SDS011;40776;52.880;6.016;2022-11-11T05:43:34;40.33;;;22.48;;
54883;SDS011;40776;52.880;6.016;2022-11-11T05:46:00;47.53;;;24.85;;
54883;SDS011;40776;52.880;6.016;2022-11-11T05:48:26;42.03;;;25.85;;
54883;SDS011;40776;52.880;6.016;2022-11-11T05:50:52;40.47;;;24.88;;
54883;SDS011;40776;52.880;6.016;2022-11-11T05:53:18;40.10;;;22.88;;
54883;SDS011;40776;52.880;6.016;2022-11-11T05:55:51;41.07;;;22.67;;
54883;SDS011;40776;52.880;6.016;2022-11-11T05:58:17;37.78;;;23.23;;
54883;SDS011;40776;52.880;6.016;2022-11-11T06:00:43;34.22;;;21.42;;
54883;SDS011;40776;52.880;6.016;2022-11-11T06:03:09;42.83;;;25.70;;
54883;SDS011;40776;52.880;6.016;2022-11-11T06:05:36;43.88;;;23.70;;
54883;SDS011;40776;52.880;6.016;2022-11-11T06:08:02;39.30;;;23.50;;
54883;SDS011;40776;52.880;6.016;2022-11-11T06:10:28;41.33;;;24.08;;
54883;SDS011;40776;52.880;6.016;2022-11-11T06:12:54;41.03;;;24.80;;
54883;SDS011;40776;52.880;6.016;2022-11-11T06:15:33;45.55;;;23.85;;
54883;SDS011;40776;52.880;6.016;2022-11-11T06:18:00;44.35;;;24.15;;
54883;SDS011;40776;52.880;6.016;2022-11-11T06:20:26;44.72;;;25.92;;
54883;SDS011;40776;52.880;6.016;2022-11-11T06:22:52;45.20;;;24.83;;
54883;SDS011;40776;52.880;6.016;2022-11-11T06:25:22;47.17;;;25.17;;
54883;SDS011;40776;52.880;6.016;2022-11-11T06:28:07;49.03;;;26.17;;
54883;SDS011;40776;52.880;6.016;2022-11-11T06:30:33;44.47;;;25.38;;
54883;SDS011;40776;52.880;6.016;2022-11-11T06:32:59;41.90;;;25.10;;
54883;SDS011;40776;52.880;6.016;2022-11-11T06:35:25;49.70;;;26.40;;
54883;SDS011;40776;52.880;6.016;2022-11-11T06:37:51;43.78;;;26.30;;
54883;SDS011;40776;52.880;6.016;2022-11-11T06:40:17;42.25;;;25.50;;
54883;SDS011;40776;52.880;6.016;2022-11-11T06:42:43;42.42;;;21.27;;
54883;SDS011;40776;52.880;6.016;2022-11-11T06:45:09;42.47;;;22.73;;
54883;SDS011;40776;52.880;6.016;2022-11-11T06:47:35;38.83;;;21.40;;
54883;SDS011;40776;52.880;6.016;2022-11-11T06:50:02;42.65;;;24.50;;
54883;SDS011;40776;52.880;6.016;2022-11-11T06:55:30;48.20;;;24.88;;
54883;SDS011;40776;52.880;6.016;2022-11-11T06:58:02;40.42;;;24.08;;
54883;SDS011;40776;52.880;6.016;2022-11-11T07:00:29;47.75;;;23.40;;
54883;SDS011;40776;52.880;6.016;2022-11-11T07:02:55;41.45;;;19.98;;
54883;SDS011;40776;52.880;6.016;2022-11-11T07:05:21;43.20;;;23.58;;
54883;SDS011;40776;52.880;6.016;2022-11-11T07:10:19;44.80;;;24.55;;
54883;SDS011;40776;52.880;6.016;2022-11-11T07:12:45;39.67;;;21.83;;
54883;SDS011;40776;52.880;6.016;2022-11-11T07:15:11;37.75;;;20.83;;
54883;SDS011;40776;52.880;6.016;2022-11-11T07:17:37;44.08;;;22.90;;
54883;SDS011;40776;52.880;6.016;2022-11-11T07:20:04;43.95;;;25.10;;
54883;SDS011;40776;52.880;6.016;2022-11-11T07:22:30;53.33;;;26.08;;
54883;SDS011;40776;52.880;6.016;2022-11-11T07:24:56;42.40;;;25.58;;
54883;SDS011;40776;52.880;6.016;2022-11-11T07:27:22;45.78;;;25.65;;
54883;SDS011;40776;52.880;6.016;2022-11-11T07:29:48;45.20;;;25.08;;
54883;SDS011;40776;52.880;6.016;2022-11-11T07:32:14;45.17;;;24.60;;
54883;SDS011;40776;52.880;6.016;2022-11-11T07:34:43;39.50;;;23.83;;
54883;SDS011;40776;52.880;6.016;2022-11-11T07:37:09;43.58;;;24.08;;
54883;SDS011;40776;52.880;6.016;2022-11-11T07:39:35;40.30;;;23.33;;
54883;SDS011;40776;52.880;6.016;2022-11-11T07:42:01;40.45;;;23.67;;
54883;SDS011;40776;52.880;6.016;2022-11-11T07:44:27;38.65;;;22.88;;
54883;SDS011;40776;52.880;6.016;2022-11-11T07:46:53;39.80;;;21.92;;
54883;SDS011;40776;52.880;6.016;2022-11-11T07:49:19;37.50;;;21.35;;
54883;SDS011;40776;52.880;6.016;2022-11-11T07:51:45;40.67;;;24.45;;
54883;SDS011;40776;52.880;6.016;2022-11-11T07:54:11;40.10;;;23.45;;
54883;SDS011;40776;52.880;6.016;2022-11-11T07:56:37;36.20;;;21.88;;
54883;SDS011;40776;52.880;6.016;2022-11-11T07:59:03;37.90;;;21.33;;
54883;SDS011;40776;52.880;6.016;2022-11-11T08:01:29;32.13;;;21.40;;
54883;SDS011;40776;52.880;6.016;2022-11-11T08:03:55;32.30;;;20.73;;
54883;SDS011;40776;52.880;6.016;2022-11-11T08:06:21;39.05;;;22.55;;
54883;SDS011;40776;52.880;6.016;2022-11-11T08:08:48;38.42;;;22.88;;
54883;SDS011;40776;52.880;6.016;2022-11-11T08:11:14;39.22;;;21.30;;
54883;SDS011;40776;52.880;6.016;2022-11-11T08:13:41;33.45;;;17.38;;
54883;SDS011;40776;52.880;6.016;2022-11-11T08:16:11;36.10;;;22.15;;
54883;SDS011;40776;52.880;6.016;2022-11-11T08:18:37;36.28;;;21.80;;
54883;SDS011;40776;52.880;6.016;2022-11-11T08:21:04;33.17;;;20.92;;
54883;SDS011;40776;52.880;6.016;2022-11-11T08:23:30;38.10;;;20.10;;
54883;SDS011;40776;52.880;6.016;2022-11-11T08:26:00;38.13;;;20.75;;
54883;SDS011;40776;52.880;6.016;2022-11-11T08:28:27;35.25;;;19.95;;
54883;SDS011;40776;52.880;6.016;2022-11-11T08:30:54;30.05;;;19.73;;
54883;SDS011;40776;52.880;6.016;2022-11-11T08:33:20;31.48;;;19.27;;
54883;SDS011;40776;52.880;6.016;2022-11-11T08:35:46;30.02;;;21.38;;
54883;SDS011;40776;52.880;6.016;2022-11-11T08:38:12;32.35;;;20.45;;
54883;SDS011;40776;52.880;6.016;2022-11-11T08:40:38;33.53;;;17.73;;
54883;SDS011;40776;52.880;6.016;2022-11-11T08:43:04;29.13;;;17.80;;
54883;SDS011;40776;52.880;6.016;2022-11-11T08:45:30;27.90;;;14.80;;
54883;SDS011;40776;52.880;6.016;2022-11-11T08:47:56;36.38;;;20.45;;
54883;SDS011;40776;52.880;6.016;2022-11-11T08:50:22;30.23;;;18.48;;
54883;SDS011;40776;52.880;6.016;2022-11-11T08:52:49;33.53;;;20.27;;
54883;SDS011;40776;52.880;6.016;2022-11-11T08:55:15;39.08;;;21.35;;
54883;SDS011;40776;52.880;6.016;2022-11-11T08:57:41;30.30;;;17.17;;
54883;SDS011;40776;52.880;6.016;2022-11-11T09:00:07;35.58;;;19.73;;
54883;SDS011;40776;52.880;6.016;2022-11-11T09:02:34;31.02;;;18.73;;
54883;SDS011;40776;52.880;6.016;2022-11-11T09:05:00;30.77;;;18.35;;
54883;SDS011;40776;52.880;6.016;2022-11-11T09:07:26;32.22;;;17.52;;
54883;SDS011;40776;52.880;6.016;2022-11-11T09:09:52;31.27;;;19.35;;
54883;SDS011;40776;52.880;6.016;2022-11-11T09:12:18;32.95;;;20.30;;
54883;SDS011;40776;52.880;6.016;2022-11-11T09:14:44;34.70;;;19.55;;
54883;SDS011;40776;52.880;6.016;2022-11-11T09:17:10;30.52;;;18.40;;
54883;SDS011;40776;52.880;6.016;2022-11-11T09:19:36;31.50;;;16.83;;
54883;SDS011;40776;52.880;6.016;2022-11-11T09:22:02;29.88;;;19.20;;
54883;SDS011;40776;52.880;6.016;2022-11-11T09:24:29;31.63;;;19.33;;
54883;SDS011;40776;52.880;6.016;2022-11-11T09:26:55;33.50;;;17.98;;
54883;SDS011;40776;52.880;6.016;2022-11-11T09:29:21;29.25;;;18.60;;
54883;SDS011;40776;52.880;6.016;2022-11-11T09:31:47;33.97;;;18.50;;
54883;SDS011;40776;52.880;6.016;2022-11-11T09:34:13;28.15;;;17.60;;
54883;SDS011;40776;52.880;6.016;2022-11-11T09:36:39;29.85;;;18.95;;
54883;SDS011;40776;52.880;6.016;2022-11-11T09:39:06;29.10;;;16.92;;
54883;SDS011;40776;52.880;6.016;2022-11-11T09:47:12;25.77;;;15.57;;
54883;SDS011;40776;52.880;6.016;2022-11-11T09:50:24;29.08;;;17.38;;
54883;SDS011;40776;52.880;6.016;2022-11-11T09:52:43;30.35;;;18.98;;
54883;SDS011;40776;52.880;6.016;2022-11-11T09:55:24;34.47;;;14.55;;
54883;SDS011;40776;52.880;6.016;2022-11-11T09:57:56;29.45;;;19.55;;
54883;SDS011;40776;52.880;6.016;2022-11-11T10:00:24;23.77;;;15.75;;
54883;SDS011;40776;52.880;6.016;2022-11-11T10:02:53;26.48;;;15.68;;
54883;SDS011;40776;52.880;6.016;2022-11-11T10:05:21;28.17;;;17.75;;
54883;SDS011;40776;52.880;6.016;2022-11-11T10:07:59;28.23;;;18.88;;
54883;SDS011;40776;52.880;6.016;2022-11-11T10:13:01;30.45;;;18.17;;
54883;SDS011;40776;52.880;6.016;2022-11-11T10:15:34;25.92;;;17.40;;
54883;SDS011;40776;52.880;6.016;2022-11-11T10:18:10;23.52;;;12.98;;
54883;SDS011;40776;52.880;6.016;2022-11-11T10:20:40;27.25;;;17.85;;
54883;SDS011;40776;52.880;6.016;2022-11-11T10:23:14;30.67;;;17.30;;
54883;SDS011;40776;52.880;6.016;2022-11-11T10:25:53;25.70;;;16.98;;
54883;SDS011;40776;52.880;6.016;2022-11-11T10:28:21;16.50;;;10.80;;
54883;SDS011;40776;52.880;6.016;2022-11-11T10:30:49;27.10;;;16.40;;
54883;SDS011;40776;52.880;6.016;2022-11-11T10:33:22;32.38;;;17.98;;
54883;SDS011;40776;52.880;6.016;2022-11-11T10:35:50;26.58;;;15.55;;
54883;SDS011;40776;52.880;6.016;2022-11-11T10:41:46;19.55;;;12.38;;
54883;SDS011;40776;52.880;6.016;2022-11-11T10:47:00;22.20;;;14.25;;
54883;SDS011;40776;52.880;6.016;2022-11-11T10:49:30;23.10;;;13.95;;
54883;SDS011;40776;52.880;6.016;2022-11-11T10:54:34;24.08;;;15.02;;
54883;SDS011;40776;52.880;6.016;2022-11-11T10:57:12;27.02;;;15.77;;
54883;SDS011;40776;52.880;6.016;2022-11-11T10:59:50;21.92;;;13.82;;
54883;SDS011;40776;52.880;6.016;2022-11-11T11:04:51;22.30;;;14.80;;
54883;SDS011;40776;52.880;6.016;2022-11-11T11:07:20;28.15;;;16.38;;
54883;SDS011;40776;52.880;6.016;2022-11-11T11:10:05;24.27;;;13.90;;
54883;SDS011;40776;52.880;6.016;2022-11-11T11:12:51;24.73;;;14.35;;
54883;SDS011;40776;52.880;6.016;2022-11-11T11:15:20;25.45;;;14.98;;
54883;SDS011;40776;52.880;6.016;2022-11-11T11:17:50;19.92;;;11.98;;
54883;SDS011;40776;52.880;6.016;2022-11-11T11:20:19;27.10;;;15.80;;
54883;SDS011;40776;52.880;6.016;2022-11-11T11:22:47;23.42;;;15.02;;
54883;SDS011;40776;52.880;6.016;2022-11-11T11:25:13;25.13;;;15.68;;
54883;SDS011;40776;52.880;6.016;2022-11-11T11:27:39;26.90;;;16.02;;
54883;SDS011;40776;52.880;6.016;2022-11-11T11:30:24;23.40;;;14.30;;
54883;SDS011;40776;52.880;6.016;2022-11-11T11:32:57;27.80;;;15.18;;
54883;SDS011;40776;52.880;6.016;2022-11-11T11:35:31;28.55;;;15.85;;
54883;SDS011;40776;52.880;6.016;2022-11-11T11:37:57;24.50;;;11.98;;
54883;SDS011;40776;52.880;6.016;2022-11-11T11:40:23;21.83;;;14.10;;
54883;SDS011;40776;52.880;6.016;2022-11-11T11:42:49;25.52;;;15.38;;
54883;SDS011;40776;52.880;6.016;2022-11-11T11:45:19;21.38;;;13.27;;
54883;SDS011;40776;52.880;6.016;2022-11-11T11:48:09;21.10;;;12.32;;
54883;SDS011;40776;52.880;6.016;2022-11-11T11:50:41;23.58;;;14.52;;
54883;SDS011;40776;52.880;6.016;2022-11-11T11:55:54;22.92;;;15.68;;
54883;SDS011;40776;52.880;6.016;2022-11-11T12:01:02;27.52;;;16.15;;
54883;SDS011;40776;52.880;6.016;2022-11-11T12:06:49;24.33;;;15.95;;
54883;SDS011;40776;52.880;6.016;2022-11-11T12:20:19;27.02;;;15.73;;
54883;SDS011;40776;52.880;6.016;2022-11-11T12:30:37;25.17;;;15.90;;
54883;SDS011;40776;52.880;6.016;2022-11-11T12:33:13;21.23;;;10.85;;
54883;SDS011;40776;52.880;6.016;2022-11-11T12:41:06;29.05;;;15.77;;
54883;SDS011;40776;52.880;6.016;2022-11-11T12:47:00;24.90;;;14.75;;
54883;SDS011;40776;52.880;6.016;2022-11-11T12:52:25;27.77;;;16.15;;
54883;SDS011;40776;52.880;6.016;2022-11-11T12:55:17;22.13;;;14.55;;
54883;SDS011;40776;52.880;6.016;2022-11-11T13:07:58;28.45;;;15.88;;
54883;SDS011;40776;52.880;6.016;2022-11-11T13:13:48;25.08;;;16.45;;
54883;SDS011;40776;52.880;6.016;2022-11-11T13:16:16;23.40;;;15.68;;
54883;SDS011;40776;52.880;6.016;2022-11-11T13:18:48;24.90;;;14.80;;
54883;SDS011;40776;52.880;6.016;2022-11-11T13:24:20;25.58;;;15.20;;
54883;SDS011;40776;52.880;6.016;2022-11-11T13:26:48;24.88;;;15.23;;
54883;SDS011;40776;52.880;6.016;2022-11-11T13:31:57;24.10;;;14.55;;
54883;SDS011;40776;52.880;6.016;2022-11-11T13:37:37;25.48;;;16.85;;
54883;SDS011;40776;52.880;6.016;2022-11-11T13:40:07;23.88;;;14.85;;
54883;SDS011;40776;52.880;6.016;2022-11-11T13:45:00;20.45;;;13.07;;
54883;SDS011;40776;52.880;6.016;2022-11-11T13:47:35;25.85;;;15.18;;
54883;SDS011;40776;52.880;6.016;2022-11-11T13:50:07;21.45;;;14.60;;
54883;SDS011;40776;52.880;6.016;2022-11-11T13:52:34;21.23;;;14.60;;
54883;SDS011;40776;52.880;6.016;2022-11-11T13:55:02;22.27;;;13.88;;
54883;SDS011;40776;52.880;6.016;2022-11-11T13:57:30;20.38;;;14.10;;
54883;SDS011;40776;52.880;6.016;2022-11-11T14:00:01;22.42;;;14.68;;
54883;SDS011;40776;52.880;6.016;2022-11-11T14:18:02;30.75;;;16.95;;
54883;SDS011;40776;52.880;6.016;2022-11-11T14:26:28;29.98;;;19.25;;
54883;SDS011;40776;52.880;6.016;2022-11-11T14:28:29;24.83;;;16.48;;
54883;SDS011;40776;52.880;6.016;2022-11-11T14:42:01;29.40;;;15.75;;
54883;SDS011;40776;52.880;6.016;2022-11-11T14:44:37;30.27;;;19.80;;
54883;SDS011;40776;52.880;6.016;2022-11-11T14:57:33;29.48;;;17.63;;
54883;SDS011;40776;52.880;6.016;2022-11-11T15:00:00;28.40;;;17.10;;
54883;SDS011;40776;52.880;6.016;2022-11-11T15:02:28;27.98;;;17.98;;
54883;SDS011;40776;52.880;6.016;2022-11-11T15:04:59;30.02;;;18.23;;
54883;SDS011;40776;52.880;6.016;2022-11-11T15:07:33;27.33;;;16.83;;
54883;SDS011;40776;52.880;6.016;2022-11-11T15:10:22;30.48;;;18.13;;
54883;SDS011;40776;52.880;6.016;2022-11-11T15:13:00;29.45;;;17.70;;
54883;SDS011;40776;52.880;6.016;2022-11-11T15:16:05;31.38;;;19.35;;
54883;SDS011;40776;52.880;6.016;2022-11-11T15:21:21;28.60;;;16.17;;
54883;SDS011;40776;52.880;6.016;2022-11-11T15:24:03;30.42;;;18.77;;
54883;SDS011;40776;52.880;6.016;2022-11-11T15:26:34;28.45;;;17.38;;
54883;SDS011;40776;52.880;6.016;2022-11-11T15:29:16;30.58;;;17.95;;
54883;SDS011;40776;52.880;6.016;2022-11-11T15:31:51;27.17;;;17.38;;
54883;SDS011;40776;52.880;6.016;2022-11-11T15:34:23;31.70;;;18.90;;
54883;SDS011;40776;52.880;6.016;2022-11-11T15:39:20;27.23;;;17.85;;
54883;SDS011;40776;52.880;6.016;2022-11-11T15:41:48;31.83;;;19.45;;
54883;SDS011;40776;52.880;6.016;2022-11-11T15:44:28;29.38;;;17.63;;
54883;SDS011;40776;52.880;6.016;2022-11-11T15:46:55;29.77;;;19.05;;
54883;SDS011;40776;52.880;6.016;2022-11-11T15:54:48;29.30;;;18.65;;
54883;SDS011;40776;52.880;6.016;2022-11-11T15:57:25;32.20;;;19.55;;
54883;SDS011;40776;52.880;6.016;2022-11-11T15:59:51;29.45;;;18.80;;
54883;SDS011;40776;52.880;6.016;2022-11-11T16:02:19;29.13;;;18.77;;
54883;SDS011;40776;52.880;6.016;2022-11-11T16:04:46;32.35;;;20.13;;
54883;SDS011;40776;52.880;6.016;2022-11-11T16:07:17;34.17;;;20.35;;
54883;SDS011;40776;52.880;6.016;2022-11-11T16:09:45;32.20;;;19.08;;
54883;SDS011;40776;52.880;6.016;2022-11-11T16:12:12;32.85;;;20.10;;
54883;SDS011;40776;52.880;6.016;2022-11-11T16:14:41;30.17;;;18.63;;
54883;SDS011;40776;52.880;6.016;2022-11-11T16:17:11;32.95;;;19.58;;
54883;SDS011;40776;52.880;6.016;2022-11-11T16:19:38;35.22;;;17.88;;
54883;SDS011;40776;52.880;6.016;2022-11-11T16:22:08;27.02;;;17.48;;
54883;SDS011;40776;52.880;6.016;2022-11-11T16:24:39;30.85;;;17.98;;
54883;SDS011;40776;52.880;6.016;2022-11-11T16:27:06;29.00;;;17.17;;
54883;SDS011;40776;52.880;6.016;2022-11-11T16:29:34;30.48;;;18.00;;
54883;SDS011;40776;52.880;6.016;2022-11-11T16:32:15;30.33;;;18.20;;
54883;SDS011;40776;52.880;6.016;2022-11-11T16:34:43;29.80;;;17.52;;
54883;SDS011;40776;52.880;6.016;2022-11-11T16:37:10;27.58;;;16.70;;
54883;SDS011;40776;52.880;6.016;2022-11-11T16:39:43;33.78;;;18.90;;
54883;SDS011;40776;52.880;6.016;2022-11-11T16:44:45;26.77;;;17.77;;
54883;SDS011;40776;52.880;6.016;2022-11-11T16:52:26;26.70;;;17.10;;
54883;SDS011;40776;52.880;6.016;2022-11-11T16:54:53;32.45;;;17.58;;
54883;SDS011;40776;52.880;6.016;2022-11-11T16:57:22;30.42;;;18.80;;
54883;SDS011;40776;52.880;6.016;2022-11-11T16:59:50;31.05;;;18.30;;
54883;SDS011;40776;52.880;6.016;2022-11-11T17:02:17;34.88;;;19.80;;
54883;SDS011;40776;52.880;6.016;2022-11-11T17:04:45;33.20;;;19.77;;
54883;SDS011;40776;52.880;6.016;2022-11-11T17:10:02;33.78;;;19.00;;
54883;SDS011;40776;52.880;6.016;2022-11-11T17:12:34;37.50;;;20.90;;
54883;SDS011;40776;52.880;6.016;2022-11-11T17:15:07;36.42;;;20.98;;
54883;SDS011;40776;52.880;6.016;2022-11-11T17:17:33;41.55;;;21.58;;
54883;SDS011;40776;52.880;6.016;2022-11-11T17:22:35;32.42;;;20.05;;
54883;SDS011;40776;52.880;6.016;2022-11-11T17:25:01;34.85;;;20.83;;